createdAt,value
2023-01-13T00:00:31.445Z,2.83
2023-01-13T00:02:34.361Z,2.53
2023-01-13T00:04:37.212Z,2.78
2023-01-13T00:06:39.942Z,3.20
2023-01-13T00:08:42.848Z,2.97
2023-01-13T00:10:47.952Z,2.95
2023-01-13T00:12:51.422Z,6.07
2023-01-13T00:14:54.086Z,4.90
2023-01-13T00:16:58.263Z,12.38
2023-01-13T00:19:00.983Z,2.70
2023-01-13T00:21:05.909Z,2.95
2023-01-13T00:23:08.590Z,2.30
2023-01-13T00:25:11.821Z,1.70
2023-01-13T00:27:14.514Z,0.93
2023-01-13T00:29:17.175Z,2.97
2023-01-13T00:31:21.779Z,5.53
2023-01-13T00:33:26.447Z,4.65
2023-01-13T00:35:29.213Z,4.43
2023-01-13T00:37:31.878Z,3.75
2023-01-13T00:39:34.582Z,1.98
2023-01-13T00:41:51.248Z,4.60
2023-01-13T00:43:54.111Z,5.30
2023-01-13T00:45:57.167Z,1.45
2023-01-13T00:48:02.747Z,5.07
2023-01-13T00:50:07.248Z,3.58
2023-01-13T00:52:10.068Z,3.88
2023-01-13T00:54:12.881Z,1.90
2023-01-13T00:56:24.357Z,2.47
2023-01-13T00:58:34.975Z,2.47
2023-01-13T01:00:38.618Z,1.55
2023-01-13T01:02:41.392Z,2.60
2023-01-13T01:04:44.084Z,3.40
2023-01-13T01:06:48.246Z,3.10
2023-01-13T01:08:51.702Z,1.88
2023-01-13T01:11:02.594Z,1.65
2023-01-13T01:13:05.327Z,3.10
2023-01-13T01:15:10.118Z,4.22
2023-01-13T01:17:12.796Z,2.30
2023-01-13T01:19:15.487Z,2.25
2023-01-13T01:21:19.638Z,1.90
2023-01-13T01:23:23.750Z,3.45
2023-01-13T01:25:26.497Z,1.38
2023-01-13T01:27:29.160Z,2.30
2023-01-13T01:29:31.978Z,4.47
2023-01-13T01:31:34.894Z,3.85
2023-01-13T01:33:37.809Z,1.52
2023-01-13T01:35:40.714Z,2.88
2023-01-13T01:37:43.457Z,3.15
2023-01-13T01:39:47.544Z,2.00
2023-01-13T01:42:04.181Z,6.68
2023-01-13T01:44:29.310Z,4.18
2023-01-13T01:46:35.142Z,2.47
2023-01-13T01:48:41.892Z,1.75
2023-01-13T01:50:44.674Z,2.95
2023-01-13T01:52:52.387Z,1.38
2023-01-13T01:55:01.129Z,1.88
2023-01-13T01:57:04.301Z,4.05
2023-01-13T01:59:07.129Z,5.72
2023-01-13T02:01:10.223Z,1.77
2023-01-13T02:03:13.363Z,3.33
2023-01-13T02:05:16.132Z,3.75
2023-01-13T02:07:19.479Z,3.80
2023-01-13T02:09:22.184Z,3.10
2023-01-13T02:11:51.550Z,2.78
2023-01-13T02:13:54.702Z,5.13
2023-01-13T02:16:09.295Z,2.50
2023-01-13T02:18:39.210Z,2.45
2023-01-13T02:21:06.096Z,3.30
2023-01-13T02:24:01.930Z,2.35
2023-01-13T02:26:27.690Z,3.92
2023-01-13T02:29:08.663Z,4.63
2023-01-13T02:31:33.715Z,1.42
2023-01-13T02:33:47.007Z,3.05
2023-01-13T02:35:53.327Z,2.10
2023-01-13T02:37:59.428Z,3.20
2023-01-13T02:40:08.185Z,3.53
2023-01-13T02:42:33.372Z,1.75
2023-01-13T02:44:42.953Z,5.05
2023-01-13T02:46:53.346Z,2.30
2023-01-13T02:48:59.248Z,5.95
2023-01-13T02:51:07.520Z,2.38
2023-01-13T02:53:16.597Z,1.52
2023-01-13T02:55:23.123Z,2.60
2023-01-13T02:57:28.744Z,4.47
2023-01-13T02:59:32.399Z,1.88
2023-01-13T03:01:35.052Z,4.93
2023-01-13T03:03:39.046Z,1.63
2023-01-13T03:05:43.639Z,3.72
2023-01-13T03:07:57.588Z,1.42
2023-01-13T03:10:07.790Z,2.65
2023-01-13T03:12:19.945Z,2.17
2023-01-13T03:14:36.562Z,2.97
2023-01-13T03:16:57.632Z,2.00
2023-01-13T03:19:22.140Z,1.85
2023-01-13T03:21:29.908Z,1.20
2023-01-13T03:23:37.108Z,4.22
2023-01-13T03:25:44.403Z,3.42
2023-01-13T03:27:54.259Z,2.80
2023-01-13T03:30:01.250Z,2.67
2023-01-13T03:32:09.185Z,2.60
2023-01-13T03:34:19.317Z,1.60
2023-01-13T03:36:26.049Z,4.57
2023-01-13T03:38:32.959Z,2.33
2023-01-13T03:40:42.041Z,2.38
2023-01-13T03:43:03.880Z,1.65
2023-01-13T03:45:12.150Z,2.15
2023-01-13T03:47:21.741Z,3.80
2023-01-13T03:49:30.382Z,2.13
2023-01-13T03:51:36.769Z,1.67
2023-01-13T03:53:44.580Z,2.53
2023-01-13T03:55:51.911Z,0.90
2023-01-13T03:58:01.163Z,1.27
2023-01-13T04:00:09.434Z,1.38
2023-01-13T04:02:19.368Z,3.95
2023-01-13T04:04:26.917Z,1.52
2023-01-13T04:06:38.154Z,3.58
2023-01-13T04:08:45.754Z,1.38
2023-01-13T04:10:54.341Z,1.30
2023-01-13T04:13:01.692Z,4.07
2023-01-13T04:15:04.469Z,2.65
2023-01-13T04:17:07.039Z,2.97
2023-01-13T04:19:09.620Z,2.28
2023-01-13T04:21:13.499Z,6.25
2023-01-13T04:23:17.160Z,2.60
2023-01-13T04:25:19.795Z,0.60
2023-01-13T04:27:22.331Z,1.02
2023-01-13T04:29:24.889Z,1.83
2023-01-13T04:31:27.524Z,1.05
2023-01-13T04:33:30.144Z,2.35
2023-01-13T04:35:33.171Z,2.78
2023-01-13T04:37:37.158Z,1.20
2023-01-13T04:39:39.778Z,2.97
2023-01-13T04:41:59.602Z,2.17
2023-01-13T04:44:02.147Z,4.50
2023-01-13T04:46:07.099Z,1.10
2023-01-13T04:48:09.781Z,3.90
2023-01-13T04:50:12.942Z,1.20
2023-01-13T04:52:15.517Z,2.15
2023-01-13T04:54:19.521Z,1.92
2023-01-13T04:56:22.094Z,1.23
2023-01-13T04:58:24.673Z,3.25
2023-01-13T05:00:27.210Z,1.83
2023-01-13T05:02:29.821Z,1.25
2023-01-13T05:04:32.448Z,1.92
2023-01-13T05:06:35.070Z,0.75
2023-01-13T05:08:37.598Z,1.45
2023-01-13T05:10:41.466Z,2.05
2023-01-13T05:13:01.699Z,0.65
2023-01-13T05:15:22.138Z,1.25
2023-01-13T05:17:26.078Z,0.75
2023-01-13T05:19:30.828Z,0.68
2023-01-13T05:21:50.847Z,0.35
2023-01-13T05:24:11.228Z,0.88
2023-01-13T05:26:15.193Z,0.77
2023-01-13T05:28:17.821Z,4.85
2023-01-13T05:30:22.152Z,1.27
2023-01-13T05:32:25.373Z,0.50
2023-01-13T05:34:27.947Z,0.93
2023-01-13T05:36:30.744Z,0.65
2023-01-13T05:38:33.311Z,0.70
2023-01-13T05:40:53.777Z,0.45
2023-01-13T05:43:24.441Z,0.30
2023-01-13T05:45:27.102Z,0.50
2023-01-13T05:47:29.682Z,0.32
2023-01-13T05:49:32.255Z,0.47
2023-01-13T05:51:34.793Z,0.95
2023-01-13T05:53:40.685Z,0.40
2023-01-13T05:55:44.046Z,0.60
2023-01-13T05:57:46.669Z,0.30
2023-01-13T05:59:50.581Z,1.00
2023-01-13T06:01:53.116Z,0.55
2023-01-13T06:03:55.759Z,1.88
2023-01-13T06:06:01.417Z,0.50
2023-01-13T06:08:06.128Z,0.40
2023-01-13T06:10:10.462Z,0.80
2023-01-13T06:12:14.476Z,1.25
2023-01-13T06:14:17.054Z,1.17
2023-01-13T06:16:21.074Z,1.30
2023-01-13T06:18:23.691Z,2.10
2023-01-13T06:20:26.482Z,0.40
2023-01-13T06:22:32.790Z,0.40
2023-01-13T06:24:35.677Z,0.43
2023-01-13T06:26:40.642Z,0.55
2023-01-13T06:28:43.271Z,1.85
2023-01-13T06:30:48.937Z,0.80
2023-01-13T06:32:56.358Z,1.15
2023-01-13T06:35:05.489Z,1.25
2023-01-13T06:37:08.366Z,0.40
2023-01-13T06:39:15.102Z,1.33
2023-01-13T06:41:18.231Z,0.85
2023-01-13T06:43:19.837Z,1.48
2023-01-13T06:45:23.803Z,1.17
2023-01-13T06:47:26.396Z,2.30
2023-01-13T06:49:30.470Z,2.58
2023-01-13T06:51:33.051Z,0.73
2023-01-13T06:53:35.645Z,1.08
2023-01-13T06:55:38.377Z,1.08
2023-01-13T06:57:49.398Z,3.42
2023-01-13T06:59:52.002Z,1.47
2023-01-13T07:01:54.743Z,0.30
2023-01-13T07:03:58.122Z,0.60
2023-01-13T07:06:02.237Z,0.40
2023-01-13T07:08:05.358Z,3.80
2023-01-13T07:10:13.001Z,0.50
2023-01-13T07:12:15.557Z,1.52
2023-01-13T07:14:35.639Z,0.40
2023-01-13T07:16:38.249Z,0.60
2023-01-13T07:18:40.946Z,1.42
2023-01-13T07:20:43.493Z,0.65
2023-01-13T07:22:47.406Z,0.60
2023-01-13T07:24:50.290Z,0.35
2023-01-13T07:26:53.263Z,0.40
2023-01-13T07:28:55.792Z,0.85
2023-01-13T07:30:59.196Z,0.50
2023-01-13T07:33:01.787Z,2.40
2023-01-13T07:35:05.908Z,1.88
2023-01-13T07:37:08.481Z,0.63
2023-01-13T07:39:12.388Z,1.90
2023-01-13T07:41:33.561Z,1.00
2023-01-13T07:43:36.112Z,0.40
2023-01-13T07:45:39.579Z,1.42
2023-01-13T07:47:42.296Z,2.35
2023-01-13T07:49:44.831Z,0.70
2023-01-13T07:51:47.377Z,2.35
2023-01-13T07:53:50.002Z,1.10
2023-01-13T07:55:56.866Z,0.43
2023-01-13T07:57:59.435Z,0.50
2023-01-13T08:00:02.023Z,1.17
2023-01-13T08:02:04.962Z,0.75
2023-01-13T08:04:07.708Z,0.47
2023-01-13T08:06:11.188Z,0.50
2023-01-13T08:08:14.044Z,2.47
2023-01-13T08:10:17.230Z,1.10
2023-01-13T08:12:38.894Z,0.55
2023-01-13T08:14:41.487Z,2.00
2023-01-13T08:16:44.126Z,0.50
2023-01-13T08:18:46.732Z,0.75
2023-01-13T08:20:49.778Z,0.60
2023-01-13T08:22:56.676Z,1.25
2023-01-13T08:24:59.369Z,0.50
2023-01-13T08:27:01.978Z,0.40
2023-01-13T08:29:05.856Z,0.65
2023-01-13T08:31:11.367Z,0.50
2023-01-13T08:33:14.203Z,1.63
2023-01-13T08:35:18.133Z,0.52
2023-01-13T08:37:20.698Z,0.68
2023-01-13T08:39:24.925Z,1.15
2023-01-13T08:41:41.463Z,0.98
2023-01-13T08:43:44.083Z,0.50
2023-01-13T08:45:57.047Z,0.50
2023-01-13T08:48:00.186Z,0.57
2023-01-13T08:50:02.775Z,0.90
2023-01-13T08:52:05.649Z,0.77
2023-01-13T08:54:08.280Z,3.67
2023-01-13T08:56:11.718Z,2.25
2023-01-13T08:58:16.305Z,0.80
2023-01-13T09:00:19.705Z,1.60
2023-01-13T09:02:24.976Z,2.17
2023-01-13T09:04:29.212Z,1.60
2023-01-13T09:06:31.916Z,0.50
2023-01-13T09:08:34.637Z,0.50
2023-01-13T09:10:37.293Z,1.05
2023-01-13T09:12:57.606Z,1.55
2023-01-13T09:15:01.495Z,1.67
2023-01-13T09:17:04.476Z,0.50
2023-01-13T09:19:08.390Z,0.50
2023-01-13T09:21:12.082Z,1.25
2023-01-13T09:23:14.664Z,2.63
2023-01-13T09:25:17.298Z,0.82
2023-01-13T09:27:19.921Z,0.85
2023-01-13T09:29:22.587Z,2.17
2023-01-13T09:31:25.250Z,0.57
2023-01-13T09:33:53.780Z,0.98
2023-01-13T09:36:01.053Z,0.60
2023-01-13T09:38:03.640Z,1.40
2023-01-13T09:40:09.088Z,4.78
2023-01-13T09:42:44.574Z,1.05
2023-01-13T09:44:53.120Z,0.95
2023-01-13T09:47:01.625Z,0.52
2023-01-13T09:49:05.340Z,1.20
2023-01-13T09:51:16.731Z,0.40
2023-01-13T09:53:26.518Z,0.80
2023-01-13T09:55:36.648Z,0.50
2023-01-13T09:57:39.975Z,0.50
2023-01-13T09:59:43.772Z,0.50
2023-01-13T10:01:57.345Z,0.70
2023-01-13T10:04:04.625Z,0.50
2023-01-13T10:06:14.654Z,2.53
2023-01-13T10:08:22.969Z,1.25
2023-01-13T10:10:34.688Z,0.73
2023-01-13T10:12:54.954Z,0.85
2023-01-13T10:14:57.551Z,0.85
2023-01-13T10:17:07.409Z,1.48
2023-01-13T10:19:18.536Z,0.90
2023-01-13T10:21:43.525Z,1.00
2023-01-13T10:23:58.167Z,2.95
2023-01-13T10:26:08.893Z,0.40
2023-01-13T10:28:13.637Z,1.45
2023-01-13T10:30:22.448Z,1.38
2023-01-13T10:32:25.138Z,1.00
2023-01-13T10:34:29.281Z,0.90
2023-01-13T10:36:33.194Z,5.60
2023-01-13T10:38:39.311Z,0.60
2023-01-13T10:40:49.635Z,0.40
2023-01-13T10:43:06.419Z,0.63
2023-01-13T10:45:24.759Z,0.70
2023-01-13T10:47:30.196Z,0.98
2023-01-13T10:49:36.288Z,1.40
2023-01-13T10:51:45.920Z,1.05
2023-01-13T10:53:53.631Z,1.33
2023-01-13T10:56:01.966Z,1.58
2023-01-13T10:58:15.135Z,1.52
2023-01-13T11:00:27.717Z,0.65
2023-01-13T11:02:32.416Z,0.77
2023-01-13T11:04:37.507Z,1.95
2023-01-13T11:06:47.840Z,3.05
2023-01-13T11:08:52.026Z,1.50
2023-01-13T11:10:56.257Z,3.53
2023-01-13T11:13:05.318Z,3.03
2023-01-13T11:15:14.671Z,1.98
2023-01-13T11:17:29.454Z,1.77
2023-01-13T11:19:37.147Z,0.57
2023-01-13T11:21:47.177Z,0.38
2023-01-13T11:24:07.355Z,1.38
2023-01-13T11:26:15.292Z,1.10
2023-01-13T11:28:29.596Z,0.38
2023-01-13T11:30:36.621Z,0.63
2023-01-13T11:32:48.371Z,0.93
2023-01-13T11:34:55.738Z,0.93
2023-01-13T11:37:01.351Z,0.35
2023-01-13T11:39:19.042Z,2.45
2023-01-13T11:41:32.328Z,0.70
2023-01-13T11:43:40.751Z,0.47
2023-01-13T11:45:48.713Z,1.17
2023-01-13T11:47:57.225Z,0.85
2023-01-13T11:50:02.623Z,0.88
2023-01-13T11:52:14.577Z,0.85
2023-01-13T11:54:36.935Z,3.42
2023-01-13T11:57:03.096Z,3.20
2023-01-13T11:59:46.348Z,1.83
2023-01-13T12:02:10.831Z,8.35
2023-01-13T12:04:24.776Z,2.85
2023-01-13T12:06:35.642Z,1.65
2023-01-13T12:09:03.055Z,1.80
2023-01-13T12:11:17.259Z,5.22
2023-01-13T12:13:28.972Z,5.40
2023-01-13T12:15:59.008Z,4.53
2023-01-13T12:18:16.599Z,3.92
2023-01-13T12:20:30.935Z,3.28
2023-01-13T12:22:36.829Z,1.70
2023-01-13T12:24:46.601Z,4.45
2023-01-13T12:26:56.178Z,1.50
2023-01-13T12:29:03.967Z,2.13
2023-01-13T12:31:07.383Z,3.33
2023-01-13T12:33:20.286Z,2.65
2023-01-13T12:35:35.986Z,3.22
2023-01-13T12:37:47.974Z,4.43
2023-01-13T12:40:04.947Z,3.13
2023-01-13T12:42:33.639Z,6.63
2023-01-13T12:44:36.301Z,6.15
2023-01-13T12:46:56.901Z,7.25
2023-01-13T12:49:19.690Z,4.25
2023-01-13T12:51:24.931Z,3.92
2023-01-13T12:53:45.127Z,3.70
2023-01-13T12:55:51.993Z,6.18
2023-01-13T12:58:15.546Z,2.53
2023-01-13T13:00:18.805Z,5.65
2023-01-13T13:02:33.157Z,6.90
2023-01-13T13:04:44.236Z,3.67
2023-01-13T13:06:54.063Z,6.83
2023-01-13T13:09:04.360Z,4.22
2023-01-13T13:11:40.531Z,5.05
2023-01-13T13:13:48.326Z,8.10
2023-01-13T13:15:52.242Z,4.90
2023-01-13T13:18:21.540Z,8.20
2023-01-13T13:21:01.665Z,4.45
2023-01-13T13:23:28.927Z,9.30
2023-01-13T13:25:31.519Z,8.45
2023-01-13T13:27:41.372Z,4.57
2023-01-13T13:29:52.917Z,8.23
2023-01-13T13:32:28.315Z,3.63
2023-01-13T13:34:38.281Z,5.07
2023-01-13T13:37:05.719Z,7.60
2023-01-13T13:39:39.672Z,6.10
2023-01-13T13:42:03.805Z,6.78
2023-01-13T13:44:34.855Z,6.75
2023-01-13T13:46:48.365Z,5.50
2023-01-13T13:48:53.033Z,5.57
2023-01-13T13:51:01.339Z,4.40
2023-01-13T13:53:08.381Z,6.55
2023-01-13T13:55:19.569Z,5.65
2023-01-13T13:57:26.108Z,4.75
2023-01-13T13:59:31.070Z,6.03
2023-01-13T14:01:37.684Z,8.18
2023-01-13T14:03:41.696Z,6.10
2023-01-13T14:05:55.162Z,7.43
2023-01-13T14:08:02.316Z,3.35
2023-01-13T14:10:08.671Z,5.82
2023-01-13T14:12:19.015Z,7.40
2023-01-13T14:14:21.591Z,8.73
2023-01-13T14:16:24.142Z,7.15
2023-01-13T14:18:28.353Z,6.35
2023-01-13T14:20:34.453Z,5.57
2023-01-13T14:22:37.328Z,4.88
2023-01-13T14:24:47.642Z,11.27
2023-01-13T14:26:52.010Z,9.55
2023-01-13T14:28:56.181Z,5.47
2023-01-13T14:30:59.538Z,5.15
2023-01-13T14:33:02.199Z,7.03
2023-01-13T14:35:07.192Z,6.63
2023-01-13T14:37:25.856Z,5.18
2023-01-13T14:39:38.788Z,11.30
2023-01-13T14:41:50.629Z,6.55
2023-01-13T14:43:56.669Z,8.80
2023-01-13T14:46:01.389Z,7.18
2023-01-13T14:48:09.844Z,9.82
2023-01-13T14:50:20.591Z,9.48
2023-01-13T14:52:27.791Z,10.00
2023-01-13T14:54:50.914Z,6.35
2023-01-13T14:56:55.106Z,7.07
2023-01-13T14:58:57.727Z,8.13
2023-01-13T15:01:30.024Z,8.43
2023-01-13T15:03:42.404Z,11.82
2023-01-13T15:05:50.554Z,6.28
2023-01-13T15:07:55.764Z,6.57
2023-01-13T15:10:00.945Z,5.70
2023-01-13T15:12:22.966Z,5.88
2023-01-13T15:14:33.674Z,12.70
2023-01-13T15:16:36.834Z,4.78
2023-01-13T15:18:41.111Z,9.65
2023-01-13T15:20:44.185Z,6.05
2023-01-13T15:22:46.991Z,7.28
2023-01-13T15:24:51.091Z,7.10
2023-01-13T15:26:53.719Z,5.35
2023-01-13T15:28:59.006Z,4.30
2023-01-13T15:31:03.696Z,10.30
2023-01-13T15:33:06.855Z,10.07
2023-01-13T15:35:14.225Z,10.35
2023-01-13T15:37:17.792Z,8.63
2023-01-13T15:39:20.446Z,5.47
2023-01-13T15:41:38.697Z,8.15
2023-01-13T15:43:59.028Z,6.60
2023-01-13T15:46:20.107Z,6.45
2023-01-13T15:48:24.731Z,7.57
2023-01-13T15:50:27.323Z,5.55
2023-01-13T15:52:30.334Z,13.23
2023-01-13T15:54:32.883Z,8.48
2023-01-13T15:56:37.954Z,7.22
2023-01-13T15:58:42.655Z,8.15
2023-01-13T16:00:45.300Z,5.38
2023-01-13T16:02:48.190Z,7.63
2023-01-13T16:04:53.776Z,11.05
2023-01-13T16:06:56.691Z,3.60
2023-01-13T16:08:59.430Z,8.43
2023-01-13T16:11:02.096Z,9.05
2023-01-13T16:13:06.325Z,7.88
2023-01-13T16:15:10.712Z,9.25
2023-01-13T16:17:17.368Z,9.55
2023-01-13T16:19:20.062Z,2.80
2023-01-13T16:21:25.496Z,7.57
2023-01-13T16:23:28.072Z,9.60
2023-01-13T16:25:30.722Z,8.88
2023-01-13T16:27:33.282Z,8.75
2023-01-13T16:29:37.176Z,5.80
2023-01-13T16:31:40.360Z,8.75
2023-01-13T16:33:42.978Z,9.60
2023-01-13T16:36:09.671Z,12.02
2023-01-13T16:38:08.215Z,6.95
2023-01-13T16:40:22.503Z,10.68
2023-01-13T16:42:25.140Z,10.02
2023-01-13T16:44:27.719Z,10.30
2023-01-13T16:46:33.543Z,8.93
2023-01-13T16:48:36.096Z,7.43
2023-01-13T16:50:40.964Z,9.73
2023-01-13T16:52:43.544Z,9.75
2023-01-13T16:54:46.129Z,7.53
2023-01-13T16:56:48.701Z,8.45
2023-01-13T16:58:52.372Z,13.02
2023-01-13T17:00:55.009Z,8.32
2023-01-13T17:03:01.859Z,8.60
2023-01-13T17:05:04.727Z,8.35
2023-01-13T17:07:10.369Z,11.20
2023-01-13T17:09:17.339Z,7.70
2023-01-13T17:11:20.487Z,11.25
2023-01-13T17:13:23.379Z,6.97
2023-01-13T17:15:25.936Z,12.13
2023-01-13T17:17:29.284Z,9.88
2023-01-13T17:19:33.177Z,10.30
2023-01-13T17:21:36.226Z,7.32
2023-01-13T17:23:38.802Z,7.88
2023-01-13T17:25:41.491Z,6.13
2023-01-13T17:27:44.072Z,7.32
2023-01-13T17:29:46.892Z,8.32
2023-01-13T17:31:49.850Z,9.60
2023-01-13T17:33:52.475Z,10.32
2023-01-13T17:35:56.387Z,6.35
2023-01-13T17:37:58.918Z,3.70
2023-01-13T17:40:02.386Z,3.40
2023-01-13T17:42:05.578Z,6.00
2023-01-13T17:44:08.123Z,6.03
2023-01-13T17:46:11.570Z,6.75
2023-01-13T17:48:14.219Z,4.65
2023-01-13T17:50:18.332Z,5.20
2023-01-13T17:52:22.232Z,8.13
2023-01-13T17:54:24.967Z,4.88
2023-01-13T17:56:27.527Z,3.67
2023-01-13T17:58:30.063Z,4.72
2023-01-13T18:00:33.732Z,3.22
2023-01-13T18:02:36.380Z,3.60
2023-01-13T18:04:39.041Z,1.50
2023-01-13T18:06:41.573Z,2.85
2023-01-13T18:08:45.946Z,1.77
2023-01-13T18:10:52.540Z,1.65
2023-01-13T18:12:55.075Z,0.73
2023-01-13T18:14:57.661Z,4.47
2023-01-13T18:17:00.223Z,1.85
2023-01-13T18:19:20.853Z,2.53
2023-01-13T18:21:45.357Z,2.10
2023-01-13T18:24:06.644Z,1.92
2023-01-13T18:26:31.280Z,1.23
2023-01-13T18:28:33.873Z,2.85
2023-01-13T18:30:36.704Z,3.17
2023-01-13T18:32:39.386Z,3.20
2023-01-13T18:34:42.763Z,3.28
2023-01-13T18:36:45.765Z,3.13
2023-01-13T18:38:51.524Z,2.65
2023-01-13T18:40:54.067Z,1.98
2023-01-13T18:42:55.759Z,3.40
2023-01-13T18:47:00.968Z,5.95
2023-01-13T18:49:03.548Z,3.72
2023-01-13T18:51:06.497Z,3.45
2023-01-13T18:53:09.048Z,3.13
2023-01-13T18:55:13.019Z,3.53
2023-01-13T18:57:15.921Z,1.38
2023-01-13T18:59:18.896Z,3.58
2023-01-13T19:01:25.684Z,3.38
2023-01-13T19:03:30.244Z,4.32
2023-01-13T19:05:34.190Z,4.50
2023-01-13T19:07:36.996Z,4.25
2023-01-13T19:09:42.116Z,2.83
2023-01-13T19:11:47.353Z,4.93
2023-01-13T19:13:50.384Z,4.40
2023-01-13T19:15:52.987Z,3.15
2023-01-13T19:17:55.762Z,2.53
2023-01-13T19:19:58.983Z,3.53
2023-01-13T19:22:01.738Z,3.35
2023-01-13T19:24:04.428Z,3.58
2023-01-13T19:26:10.132Z,2.83
2023-01-13T19:28:14.784Z,4.63
2023-01-13T19:30:17.702Z,4.40
2023-01-13T19:32:21.943Z,2.53
2023-01-13T19:34:25.362Z,1.77
2023-01-13T19:36:27.935Z,2.70
2023-01-13T19:38:30.524Z,3.10
2023-01-13T19:40:33.074Z,2.83
2023-01-13T19:42:53.131Z,1.98
2023-01-13T19:45:14.422Z,2.42
2023-01-13T19:47:17.097Z,3.28
2023-01-13T19:49:19.675Z,5.20
2023-01-13T19:51:22.199Z,11.23
2023-01-13T19:53:24.753Z,10.10
2023-01-13T19:55:28.017Z,12.55
2023-01-13T19:57:30.899Z,9.77
2023-01-13T19:59:33.715Z,10.00
2023-01-13T20:01:41.340Z,7.95
2023-01-13T20:03:46.110Z,9.20
2023-01-13T20:05:48.740Z,9.63
2023-01-13T20:07:52.204Z,10.75
2023-01-13T20:09:56.274Z,8.73
2023-01-13T20:11:58.935Z,6.13
2023-01-13T20:14:02.679Z,10.57
2023-01-13T20:16:06.672Z,7.30
2023-01-13T20:18:13.809Z,9.18
2023-01-13T20:20:16.753Z,5.00
2023-01-13T20:22:19.490Z,5.70
2023-01-13T20:24:23.204Z,8.57
2023-01-13T20:26:25.742Z,6.90
2023-01-13T20:28:28.561Z,9.45
2023-01-13T20:30:31.146Z,8.23
2023-01-13T20:32:33.765Z,5.30
2023-01-13T20:34:37.724Z,7.20
2023-01-13T20:36:43.299Z,7.53
2023-01-13T20:38:45.876Z,5.50
2023-01-13T20:40:48.513Z,6.97
2023-01-13T20:42:51.727Z,6.32
2023-01-13T20:44:54.359Z,6.72
2023-01-13T20:46:57.867Z,4.40
2023-01-13T20:49:00.455Z,5.13
2023-01-13T20:51:04.699Z,9.13
2023-01-13T20:53:07.341Z,4.15
2023-01-13T20:55:10.654Z,5.32
2023-01-13T20:57:13.339Z,6.28
2023-01-13T20:59:15.967Z,4.78
2023-01-13T21:01:18.610Z,7.22
2023-01-13T21:03:21.254Z,4.90
2023-01-13T21:05:23.933Z,4.78
2023-01-13T21:07:28.309Z,12.00
2023-01-13T21:09:31.204Z,4.57
2023-01-13T21:11:51.552Z,9.02
2023-01-13T21:14:11.722Z,5.40
2023-01-13T21:16:14.361Z,6.85
2023-01-13T21:18:34.451Z,6.43
2023-01-13T21:20:38.659Z,4.15
2023-01-13T21:22:45.626Z,4.03
2023-01-13T21:24:49.213Z,4.97
2023-01-13T21:26:54.649Z,5.03
2023-01-13T21:28:58.516Z,4.75
2023-01-13T21:31:03.327Z,6.53
2023-01-13T21:33:06.290Z,8.68
2023-01-13T21:35:10.231Z,4.40
2023-01-13T21:37:12.810Z,7.90
2023-01-13T21:39:16.719Z,4.50
2023-01-13T21:41:40.029Z,6.95
2023-01-13T21:44:00.061Z,9.80
2023-01-13T21:46:31.860Z,6.45
2023-01-13T21:48:34.582Z,6.70
2023-01-13T21:50:38.296Z,6.45
2023-01-13T21:52:42.580Z,7.03
2023-01-13T21:55:12.629Z,11.27
2023-01-13T21:57:15.419Z,7.68
2023-01-13T21:59:18.249Z,9.93
2023-01-13T22:01:21.150Z,6.43
2023-01-13T22:03:23.958Z,11.63
2023-01-13T22:05:27.434Z,7.00
2023-01-13T22:07:32.277Z,11.48
2023-01-13T22:09:34.875Z,9.15
2023-01-13T22:11:38.956Z,11.50
2023-01-13T22:14:14.129Z,8.30
2023-01-13T22:16:17.179Z,8.02
2023-01-13T22:18:19.847Z,9.88
2023-01-13T22:20:23.359Z,11.00
2023-01-13T22:22:27.207Z,6.97
2023-01-13T22:24:30.327Z,10.50
2023-01-13T22:26:32.974Z,9.05
2023-01-13T22:28:42.809Z,8.65
2023-01-13T22:30:46.156Z,11.32
2023-01-13T22:32:48.814Z,7.50
2023-01-13T22:34:51.403Z,8.40
2023-01-13T22:36:53.990Z,8.50
2023-01-13T22:38:57.239Z,11.10
2023-01-13T22:41:00.694Z,9.27
2023-01-13T22:43:03.317Z,9.70
2023-01-13T22:45:11.569Z,7.00
2023-01-13T22:47:14.126Z,8.23
2023-01-13T22:49:19.953Z,9.73
2023-01-13T22:51:23.687Z,7.28
2023-01-13T22:53:26.221Z,5.72
2023-01-13T22:55:28.773Z,7.15
2023-01-13T22:57:36.012Z,9.30
2023-01-13T22:59:41.323Z,11.45
2023-01-13T23:01:45.340Z,8.55
2023-01-13T23:03:48.791Z,8.65
2023-01-13T23:05:57.975Z,7.55
2023-01-13T23:08:00.657Z,7.28
2023-01-13T23:10:03.258Z,9.93
2023-01-13T23:12:06.725Z,5.18
2023-01-13T23:14:11.659Z,9.32
2023-01-13T23:16:16.546Z,4.65
2023-01-13T23:18:20.437Z,11.10
2023-01-13T23:20:22.983Z,9.65
2023-01-13T23:22:25.595Z,5.78
2023-01-13T23:24:29.279Z,7.63
2023-01-13T23:26:32.685Z,11.57
2023-01-13T23:28:36.807Z,8.88
2023-01-13T23:30:40.658Z,6.43
2023-01-13T23:32:43.250Z,11.63
2023-01-13T23:34:47.128Z,6.63
2023-01-13T23:36:49.670Z,9.25
2023-01-13T23:38:53.450Z,4.00
2023-01-13T23:40:56.521Z,10.35
2023-01-13T23:42:59.097Z,8.80
2023-01-13T23:45:01.699Z,8.68
2023-01-13T23:47:04.313Z,7.70
2023-01-13T23:49:06.902Z,9.43
2023-01-13T23:51:13.427Z,6.47
2023-01-13T23:53:16.032Z,9.45
2023-01-13T23:55:18.640Z,8.77
2023-01-13T23:57:21.184Z,9.20
2023-01-13T23:59:23.859Z,6.57
